Accueil
METAR-TAF:

METAR-TAF

Aéroports :

Saint-Dizier, France

Base aérienne 113 Saint-Dizier-Robinson

latitude: 48-38N, longitude: 004-54E, altitude: 139 m

Observation

Le bulletin a été fait il y a 36 minutes, à 11:30 UTC
Vent 6 kt de sud-ouest, variant entre sud/sud-est et ouest/nord-ouest
Température 26°C
Humidité 54%
Pression 1006 hPa
Visibilité 10 km ou plus
Nuages épars à une hauteur de 3300 ft

METAR: LFSI 271130Z AUTO 23006KT 150V290 9999 SCT033 26/16 Q1006

Heure: 14:06 (12:06 UTC)

Prévision

Le bulletin a été fait il y a 4 heures et 6 minutes, à 08:00 UTC
Prévision valable du 27 à 09 UTC au 28 à 09 UTC
Vent 5 kt de sud-ouest
Visibilité 10 km ou plus
pas de nuages en-dessous de 1500 mètres et pas de cumulonimbus.
Temporairement
du 27 à 10 UTC au 27 à 18 UTC
Visibilité: 4000 m
Nuages épars à une hauteur de 4500 ft, Cumulus congestus.
averses de pluie

TAF: LFSI 270800Z 2709/2809 22005KT CAVOK TEMPO 2710/2718 4000 SHRA SCT045TCU

Observations et prévisions météorologiques de plus de 4000 aéroports (messages METAR et TAF).

Les stations disponibles sont représentées par des disques jaunes et rouges sur la carte.

Passer la souris dessus pour voir le nom de la station.

Cliquer dessus pour voir les observations et prévisions météorologiques.

Pour changer de carte: cliquez sur les boutons verts avec une croix noire pour zoomer, sur le bouton vert avec un tiret pour effectuer un zoom arrière, ou sur les flèches vertes pour les cartes adjacentes.


METAR-TAF: